createdAt,value
2022-09-28T00:01:19.058Z,11.54
2022-09-28T00:03:48.772Z,11.66
2022-09-28T00:06:18.836Z,11.63
2022-09-28T00:08:45.744Z,11.48
2022-09-28T00:11:15.619Z,11.48
2022-09-28T00:13:44.005Z,11.51
2022-09-28T00:16:14.312Z,11.50
2022-09-28T00:18:42.027Z,11.54
2022-09-28T00:21:14.855Z,11.49
2022-09-28T00:24:01.600Z,11.55
2022-09-28T00:26:30.476Z,11.56
2022-09-28T00:28:59.775Z,11.53
2022-09-28T00:31:30.322Z,11.49
2022-09-28T00:33:57.646Z,11.50
2022-09-28T00:36:27.187Z,11.49
2022-09-28T00:38:58.538Z,11.52
2022-09-28T00:41:27.684Z,11.53
2022-09-28T00:44:26.700Z,11.55
2022-09-28T00:47:17.950Z,11.52
2022-09-28T00:49:54.131Z,11.49
2022-09-28T00:52:31.895Z,11.47
2022-09-28T00:55:02.280Z,11.52
2022-09-28T00:57:30.925Z,11.54
2022-09-28T01:00:01.071Z,11.49
2022-09-28T01:02:28.274Z,11.47
2022-09-28T01:04:57.420Z,11.45
2022-09-28T01:07:24.768Z,11.44
2022-09-28T01:09:54.130Z,11.46
2022-09-28T01:12:21.229Z,11.49
2022-09-28T01:14:49.550Z,11.44
2022-09-28T01:17:22.129Z,11.45
2022-09-28T01:20:28.356Z,11.47
2022-09-28T01:23:01.397Z,11.45
2022-09-28T01:25:41.213Z,11.39
2022-09-28T01:28:14.018Z,11.37
2022-09-28T01:30:56.009Z,11.37
2022-09-28T01:33:29.338Z,11.39
2022-09-28T01:36:28.426Z,11.36
2022-09-28T01:39:00.262Z,11.41
2022-09-28T01:41:30.498Z,11.39
2022-09-28T01:44:03.100Z,11.38
2022-09-28T01:46:50.338Z,11.38
2022-09-28T01:49:23.146Z,11.37
2022-09-28T01:51:52.891Z,11.34
2022-09-28T01:54:38.461Z,11.27
2022-09-28T01:57:17.653Z,11.33
2022-09-28T01:59:54.960Z,11.39
2022-09-28T02:02:32.636Z,11.45
2022-09-28T02:05:42.588Z,11.39
2022-09-28T02:08:33.800Z,11.41
2022-09-28T02:11:15.518Z,11.35
2022-09-28T02:13:56.115Z,11.35
2022-09-28T02:16:33.653Z,11.40
2022-09-28T02:19:01.454Z,11.53
2022-09-28T02:21:43.968Z,11.46
2022-09-28T02:24:21.539Z,11.53
2022-09-28T02:26:52.061Z,11.38
2022-09-28T02:29:19.266Z,11.33
2022-09-28T02:31:46.345Z,11.26
2022-09-28T02:34:13.376Z,11.22
2022-09-28T02:36:40.715Z,11.09
2022-09-28T02:39:18.158Z,11.01
2022-09-28T02:41:55.684Z,10.99
2022-09-28T02:44:49.656Z,10.97
2022-09-28T02:47:35.106Z,11.18
2022-09-28T02:50:04.515Z,11.07
2022-09-28T02:52:50.552Z,10.96
2022-09-28T02:55:17.633Z,10.94
2022-09-28T02:57:54.635Z,10.87
2022-09-28T03:00:23.671Z,10.88
2022-09-28T03:03:30.106Z,10.84
2022-09-28T03:06:07.903Z,10.74
2022-09-28T03:08:53.074Z,10.83
2022-09-28T03:11:25.112Z,10.88
2022-09-28T03:13:53.513Z,10.95
2022-09-28T03:16:24.854Z,10.99
2022-09-28T03:18:52.018Z,11.03
2022-09-28T03:21:19.368Z,11.05
2022-09-28T03:23:47.498Z,11.08
2022-09-28T03:26:20.030Z,11.16
2022-09-28T03:28:47.408Z,11.22
2022-09-28T03:31:20.965Z,11.22
2022-09-28T03:33:48.011Z,11.29
2022-09-28T03:36:15.379Z,11.30
2022-09-28T03:38:42.421Z,11.28
2022-09-28T03:41:10.496Z,11.29
2022-09-28T03:43:40.812Z,11.33
2022-09-28T03:46:07.874Z,11.35
2022-09-28T03:48:40.797Z,11.38
2022-09-28T03:51:11.136Z,11.41
2022-09-28T03:53:39.757Z,11.45
2022-09-28T03:56:12.423Z,11.41
2022-09-28T03:58:40.167Z,11.42
2022-09-28T04:01:16.406Z,11.48
2022-09-28T04:03:46.489Z,11.60
2022-09-28T04:06:14.152Z,11.45
2022-09-28T04:08:41.287Z,11.44
2022-09-28T04:11:09.216Z,11.50
2022-09-28T04:13:37.764Z,11.47
2022-09-28T04:16:07.392Z,11.49
2022-09-28T04:18:36.971Z,11.63
2022-09-28T04:21:22.659Z,11.51
2022-09-28T04:23:55.172Z,11.45
2022-09-28T04:26:24.559Z,11.46
2022-09-28T04:29:10.348Z,11.46
2022-09-28T04:31:42.243Z,11.48
2022-09-28T04:34:09.724Z,11.42
2022-09-28T04:36:37.939Z,11.35
2022-09-28T04:39:05.585Z,11.41
2022-09-28T04:41:33.497Z,11.38
2022-09-28T04:44:01.366Z,11.40
2022-09-28T04:46:28.506Z,11.39
2022-09-28T04:49:14.342Z,11.40
2022-09-28T04:51:53.400Z,11.39
2022-09-28T04:54:20.406Z,11.44
2022-09-28T04:56:47.562Z,11.46
2022-09-28T04:59:14.713Z,11.49
2022-09-28T05:01:42.719Z,11.39
2022-09-28T05:04:35.906Z,11.48
2022-09-28T05:07:27.139Z,11.44
2022-09-28T05:09:56.588Z,11.59
2022-09-28T05:12:25.488Z,11.61
2022-09-28T05:14:52.492Z,11.57
2022-09-28T05:17:19.554Z,11.72
2022-09-28T05:19:59.431Z,11.70
2022-09-28T05:22:26.565Z,11.79
2022-09-28T05:24:55.175Z,11.86
2022-09-28T05:27:24.109Z,11.83
2022-09-28T05:30:00.004Z,11.89
2022-09-28T05:32:45.588Z,11.94
2022-09-28T05:35:23.564Z,11.92
2022-09-28T05:37:55.188Z,12.09
2022-09-28T05:40:23.302Z,12.07
2022-09-28T05:42:53.594Z,12.17
2022-09-28T05:45:21.084Z,12.20
2022-09-28T05:47:50.515Z,12.23
2022-09-28T05:50:20.924Z,12.20
2022-09-28T05:52:50.314Z,12.21
2022-09-28T05:55:17.373Z,12.27
2022-09-28T05:57:44.296Z,12.33
2022-09-28T06:00:11.934Z,12.11
2022-09-28T06:02:56.262Z,12.23
2022-09-28T06:05:23.995Z,12.25
2022-09-28T06:07:50.978Z,12.36
2022-09-28T06:10:18.148Z,12.43
2022-09-28T06:12:47.183Z,12.42
2022-09-28T06:15:17.517Z,12.48
2022-09-28T06:17:46.124Z,12.53
2022-09-28T06:20:35.702Z,12.62
2022-09-28T06:23:16.560Z,12.41
2022-09-28T06:25:43.997Z,12.42
2022-09-28T06:28:13.710Z,12.52
2022-09-28T06:30:42.098Z,12.66
2022-09-28T06:33:13.506Z,12.77
2022-09-28T06:35:41.281Z,12.90
2022-09-28T06:38:08.888Z,12.88
2022-09-28T06:40:36.641Z,12.95
2022-09-28T06:43:11.379Z,13.13
2022-09-28T06:45:57.218Z,13.31
2022-09-28T06:48:59.679Z,13.46
2022-09-28T06:51:46.633Z,13.74
2022-09-28T06:54:25.895Z,13.69
2022-09-28T06:57:28.255Z,13.65
2022-09-28T06:59:58.250Z,13.80
2022-09-28T07:02:26.313Z,13.89
2022-09-28T07:05:13.985Z,13.65
2022-09-28T07:07:59.395Z,14.12
2022-09-28T07:11:07.220Z,14.26
2022-09-28T07:14:03.384Z,14.16
2022-09-28T07:16:51.929Z,14.36
2022-09-28T07:19:19.009Z,14.35
2022-09-28T07:21:51.528Z,14.48
2022-09-28T07:24:23.807Z,14.11
2022-09-28T07:27:09.740Z,14.21
2022-09-28T07:29:53.118Z,13.93
2022-09-28T07:32:37.547Z,14.12
2022-09-28T07:36:00.874Z,14.17
2022-09-28T07:38:29.613Z,14.23
2022-09-28T07:41:12.963Z,13.95
2022-09-28T07:43:46.494Z,13.89
2022-09-28T07:46:13.634Z,14.31
2022-09-28T07:49:00.718Z,14.81
2022-09-28T07:51:34.309Z,14.96
2022-09-28T07:54:39.584Z,14.98
2022-09-28T07:57:41.956Z,14.62
2022-09-28T08:00:25.354Z,14.45
2022-09-28T08:02:52.425Z,14.27
2022-09-28T08:05:23.925Z,14.58
2022-09-28T08:07:50.966Z,15.10
2022-09-28T08:10:18.210Z,15.50
2022-09-28T08:13:23.481Z,15.17
2022-09-28T08:16:12.786Z,15.23
2022-09-28T08:19:09.775Z,15.18
2022-09-28T08:21:45.791Z,15.02
2022-09-28T08:24:15.702Z,14.91
2022-09-28T08:26:43.886Z,14.85
2022-09-28T08:29:12.588Z,15.04
2022-09-28T08:31:51.996Z,14.91
2022-09-28T08:34:48.687Z,15.28
2022-09-28T08:37:34.891Z,15.56
2022-09-28T08:40:25.850Z,15.96
2022-09-28T08:43:15.564Z,16.12
2022-09-28T08:46:25.010Z,16.20
2022-09-28T08:49:25.788Z,16.12
2022-09-28T08:52:24.944Z,15.97
2022-09-28T08:55:35.063Z,15.86
2022-09-28T08:58:12.478Z,15.68
2022-09-28T09:00:59.389Z,15.30
2022-09-28T09:03:34.733Z,15.51
2022-09-28T09:06:40.715Z,15.80
2022-09-28T09:09:38.382Z,15.69
2022-09-28T09:12:36.965Z,15.73
2022-09-28T09:15:28.600Z,15.72
2022-09-28T09:18:23.104Z,15.48
2022-09-28T09:21:28.753Z,15.81
2022-09-28T09:24:02.243Z,15.76
2022-09-28T09:26:40.682Z,15.20
2022-09-28T09:29:29.224Z,15.48
2022-09-28T09:32:18.644Z,15.49
2022-09-28T09:34:52.136Z,15.28
2022-09-28T09:38:02.273Z,15.37
2022-09-28T09:41:16.828Z,15.28
2022-09-28T09:44:28.139Z,15.08
2022-09-28T09:47:30.948Z,15.34
2022-09-28T09:50:17.092Z,15.92
2022-09-28T09:52:57.563Z,16.23
2022-09-28T09:55:45.267Z,15.64
2022-09-28T09:58:48.054Z,15.79
2022-09-28T10:01:41.237Z,15.65
2022-09-28T10:04:30.063Z,15.69
2022-09-28T10:07:04.671Z,15.64
2022-09-28T10:09:42.615Z,15.82
2022-09-28T10:12:29.310Z,15.84
2022-09-28T10:14:56.822Z,15.93
2022-09-28T10:17:27.928Z,16.02
2022-09-28T10:20:23.388Z,15.75
2022-09-28T10:23:14.562Z,15.62
2022-09-28T10:25:46.263Z,15.34
2022-09-28T10:28:22.778Z,15.71
2022-09-28T10:30:51.008Z,15.98
2022-09-28T10:33:33.227Z,15.57
2022-09-28T10:36:02.242Z,15.75
2022-09-28T10:38:31.101Z,15.96
2022-09-28T10:41:11.845Z,16.49
2022-09-28T10:44:06.359Z,16.81
2022-09-28T10:46:43.091Z,17.11
2022-09-28T10:49:18.883Z,16.64
2022-09-28T10:51:56.815Z,16.48
2022-09-28T10:54:29.860Z,17.02
2022-09-28T10:56:59.461Z,17.57
2022-09-28T10:59:41.686Z,17.74
2022-09-28T11:02:40.232Z,17.73
2022-09-28T11:05:22.918Z,18.13
2022-09-28T11:07:54.090Z,17.79
2022-09-28T11:10:29.038Z,17.24
2022-09-28T11:13:01.803Z,16.28
2022-09-28T11:15:33.588Z,17.34
2022-09-28T11:18:28.396Z,18.08
2022-09-28T11:21:12.629Z,18.32
2022-09-28T11:24:02.494Z,17.94
2022-09-28T11:26:44.542Z,18.57
2022-09-28T11:29:42.114Z,18.10
2022-09-28T11:32:18.776Z,18.48
2022-09-28T11:35:04.769Z,18.02
2022-09-28T11:37:43.390Z,18.13
2022-09-28T11:40:19.593Z,18.16
2022-09-28T11:42:59.404Z,17.90
2022-09-28T11:45:54.555Z,18.44
2022-09-28T11:48:31.024Z,18.95
2022-09-28T11:51:04.242Z,18.64
2022-09-28T11:53:47.874Z,18.54
2022-09-28T11:56:32.236Z,18.99
2022-09-28T11:59:07.594Z,19.03
2022-09-28T12:01:56.776Z,18.37
2022-09-28T12:04:45.596Z,17.74
2022-09-28T12:07:23.913Z,17.25
2022-09-28T12:10:08.672Z,17.35
2022-09-28T12:12:42.256Z,17.44
2022-09-28T12:15:20.232Z,17.80
2022-09-28T12:17:54.458Z,17.34
2022-09-28T12:20:32.616Z,17.37
2022-09-28T12:22:59.506Z,18.25
2022-09-28T12:25:31.632Z,18.41
2022-09-28T12:28:03.667Z,17.49
2022-09-28T12:30:37.501Z,17.90
2022-09-28T12:33:15.592Z,18.22
2022-09-28T12:36:09.834Z,18.40
2022-09-28T12:39:27.490Z,18.72
2022-09-28T12:42:01.039Z,18.32
2022-09-28T12:44:59.424Z,18.17
2022-09-28T12:48:04.157Z,17.93
2022-09-28T12:50:57.748Z,18.53
2022-09-28T12:53:54.196Z,18.90
2022-09-28T12:56:30.041Z,18.63
2022-09-28T12:59:29.273Z,17.93
2022-09-28T13:01:59.390Z,17.82
2022-09-28T13:04:53.853Z,17.96
2022-09-28T13:07:38.070Z,18.26
2022-09-28T13:10:23.855Z,17.78
2022-09-28T13:13:22.240Z,17.79
2022-09-28T13:16:10.692Z,18.23
2022-09-28T13:18:49.084Z,18.32
2022-09-28T13:21:23.607Z,18.02
2022-09-28T13:24:04.301Z,18.24
2022-09-28T13:26:45.022Z,17.43
2022-09-28T13:29:16.579Z,17.80
2022-09-28T13:31:57.373Z,18.31
2022-09-28T13:34:32.761Z,18.32
2022-09-28T13:37:16.988Z,18.13
2022-09-28T13:39:52.555Z,18.22
2022-09-28T13:42:26.466Z,18.14
2022-09-28T13:44:59.688Z,18.31
2022-09-28T13:47:50.566Z,18.33
2022-09-28T13:50:29.433Z,18.26
2022-09-28T13:53:20.748Z,18.13
2022-09-28T13:56:00.792Z,18.03
2022-09-28T13:58:44.352Z,17.97
2022-09-28T14:01:29.346Z,18.01
2022-09-28T14:03:57.366Z,17.54
2022-09-28T14:06:32.805Z,17.49
2022-09-28T14:09:27.039Z,17.26
2022-09-28T14:12:03.048Z,17.53
2022-09-28T14:14:50.334Z,17.32
2022-09-28T14:17:23.998Z,17.48
2022-09-28T14:20:13.519Z,17.43
2022-09-28T14:23:25.444Z,17.39
2022-09-28T14:26:17.124Z,17.31
2022-09-28T14:28:58.126Z,17.35
2022-09-28T14:31:27.908Z,17.15
2022-09-28T14:33:59.430Z,17.30
2022-09-28T14:36:53.171Z,17.29
2022-09-28T14:39:49.225Z,17.21
2022-09-28T14:42:22.008Z,17.11
2022-09-28T14:45:06.611Z,17.03
2022-09-28T14:48:02.958Z,17.09
2022-09-28T14:50:30.261Z,17.13
2022-09-28T14:53:13.604Z,17.12
2022-09-28T14:55:55.559Z,17.08
2022-09-28T14:58:26.887Z,17.05
2022-09-28T15:01:14.624Z,16.98
2022-09-28T15:03:43.899Z,16.90
2022-09-28T15:06:19.868Z,16.87
2022-09-28T15:08:47.231Z,16.92
2022-09-28T15:11:18.525Z,16.99
2022-09-28T15:13:46.190Z,17.04
2022-09-28T15:16:15.629Z,16.98
2022-09-28T15:18:54.862Z,16.97
2022-09-28T15:21:22.413Z,16.86
2022-09-28T15:23:50.570Z,16.90
2022-09-28T15:26:27.502Z,16.78
2022-09-28T15:28:55.556Z,16.83
2022-09-28T15:31:25.701Z,16.76
2022-09-28T15:34:11.870Z,16.77
2022-09-28T15:36:46.504Z,16.82
2022-09-28T15:39:41.175Z,16.74
2022-09-28T15:42:08.468Z,16.68
2022-09-28T15:44:37.619Z,16.71
2022-09-28T15:47:25.105Z,16.69
2022-09-28T15:50:05.037Z,16.76
2022-09-28T15:52:41.410Z,16.76
2022-09-28T15:55:42.649Z,16.69
2022-09-28T15:58:12.689Z,16.67
2022-09-28T16:00:40.387Z,16.71
2022-09-28T16:03:07.321Z,16.58
2022-09-28T16:05:39.942Z,16.57
2022-09-28T16:08:21.434Z,16.56
2022-09-28T16:11:38.137Z,16.61
2022-09-28T16:14:07.453Z,16.65
2022-09-28T16:16:42.201Z,16.49
2022-09-28T16:19:36.296Z,16.56
2022-09-28T16:22:16.487Z,16.45
2022-09-28T16:24:54.768Z,16.33
2022-09-28T16:27:40.267Z,16.19
2022-09-28T16:30:10.229Z,16.06
2022-09-28T16:32:41.950Z,16.00
2022-09-28T16:35:11.598Z,15.80
2022-09-28T16:37:43.099Z,15.64
2022-09-28T16:40:11.434Z,15.56
2022-09-28T16:42:44.395Z,15.42
2022-09-28T16:45:20.053Z,15.41
2022-09-28T16:47:47.791Z,15.42
2022-09-28T16:50:15.441Z,15.38
2022-09-28T16:53:01.492Z,15.31
2022-09-28T16:55:39.988Z,15.31
2022-09-28T16:58:08.669Z,15.29
2022-09-28T17:00:36.364Z,15.37
2022-09-28T17:03:13.031Z,15.29
2022-09-28T17:05:40.313Z,15.33
2022-09-28T17:08:10.843Z,15.27
2022-09-28T17:11:02.599Z,15.25
2022-09-28T17:13:36.148Z,15.28
2022-09-28T17:16:49.423Z,15.24
2022-09-28T17:19:23.474Z,15.26
2022-09-28T17:21:52.016Z,15.24
2022-09-28T17:24:20.007Z,15.24
2022-09-28T17:26:49.232Z,15.28
2022-09-28T17:29:16.656Z,15.24
2022-09-28T17:31:45.221Z,15.26
2022-09-28T17:34:15.312Z,15.27
2022-09-28T17:36:43.435Z,15.32
2022-09-28T17:39:15.396Z,15.22
2022-09-28T17:41:42.550Z,15.19
2022-09-28T17:44:10.169Z,15.24
2022-09-28T17:46:40.848Z,15.22
2022-09-28T17:49:11.773Z,15.31
2022-09-28T17:51:38.805Z,15.34
2022-09-28T17:54:08.241Z,15.52
2022-09-28T17:56:38.213Z,15.33
2022-09-28T17:59:07.985Z,15.37
2022-09-28T18:01:38.907Z,15.38
2022-09-28T18:04:08.254Z,15.53
2022-09-28T18:06:37.363Z,15.48
2022-09-28T18:09:05.335Z,15.37
2022-09-28T18:11:33.733Z,15.31
2022-09-28T18:14:01.212Z,15.26
2022-09-28T18:16:29.113Z,15.24
2022-09-28T18:18:56.685Z,15.27
2022-09-28T18:21:23.763Z,15.33
2022-09-28T18:23:51.055Z,15.41
2022-09-28T18:26:19.794Z,15.48
2022-09-28T18:28:47.280Z,15.50
2022-09-28T18:31:16.112Z,15.58
2022-09-28T18:33:44.193Z,15.55
2022-09-28T18:36:11.137Z,15.52
2022-09-28T18:38:38.745Z,15.52
2022-09-28T18:41:10.572Z,15.47
2022-09-28T18:43:37.775Z,15.51
2022-09-28T18:46:10.046Z,15.41
2022-09-28T18:48:38.181Z,15.40
2022-09-28T18:51:09.652Z,15.38
2022-09-28T18:53:37.313Z,15.36
2022-09-28T18:56:12.046Z,15.31
2022-09-28T18:58:40.801Z,15.30
2022-09-28T19:04:01.086Z,15.21
2022-09-28T19:06:28.887Z,15.18
2022-09-28T19:08:56.566Z,15.19
2022-09-28T19:11:24.390Z,15.19
2022-09-28T19:13:54.447Z,15.15
2022-09-28T19:16:30.164Z,15.11
2022-09-28T19:19:01.497Z,15.13
2022-09-28T19:21:28.944Z,15.31
2022-09-28T19:23:56.187Z,15.49
2022-09-28T19:26:27.724Z,15.49
2022-09-28T19:28:58.180Z,15.38
2022-09-28T19:31:26.506Z,15.23
2022-09-28T19:33:53.563Z,15.10
2022-09-28T19:36:23.766Z,14.98
2022-09-28T19:38:52.311Z,14.95
2022-09-28T19:41:43.055Z,15.01
2022-09-28T19:44:13.630Z,15.10
2022-09-28T19:46:40.742Z,15.07
2022-09-28T19:49:14.091Z,15.07
2022-09-28T19:52:01.652Z,14.99
2022-09-28T19:54:35.505Z,14.94
2022-09-28T19:57:07.949Z,14.88
2022-09-28T19:59:36.938Z,14.87
2022-09-28T20:02:06.796Z,14.89
2022-09-28T20:04:36.981Z,14.91
2022-09-28T20:07:05.428Z,14.86
2022-09-28T20:09:33.147Z,14.84
2022-09-28T20:12:00.223Z,14.93
2022-09-28T20:14:32.016Z,15.00
2022-09-28T20:17:01.371Z,14.95
2022-09-28T20:19:28.342Z,15.02
2022-09-28T20:21:59.634Z,15.08
2022-09-28T20:24:28.877Z,15.26
2022-09-28T20:26:56.013Z,15.34
2022-09-28T20:29:24.397Z,15.22
2022-09-28T20:31:52.078Z,15.14
2022-09-28T20:34:19.188Z,15.12
2022-09-28T20:36:46.367Z,15.08
2022-09-28T20:39:13.537Z,15.07
2022-09-28T20:41:41.290Z,15.03
2022-09-28T20:44:08.459Z,14.96
2022-09-28T20:46:36.674Z,14.98
2022-09-28T20:49:05.279Z,14.97
2022-09-28T20:51:32.482Z,15.00
2022-09-28T20:54:00.253Z,14.97
2022-09-28T20:56:38.303Z,14.98
2022-09-28T20:59:13.431Z,14.91
2022-09-28T21:01:41.104Z,14.95
2022-09-28T21:04:09.671Z,15.00
2022-09-28T21:06:39.698Z,14.89
2022-09-28T21:09:08.395Z,14.88
2022-09-28T21:11:36.000Z,14.93
2022-09-28T21:14:06.461Z,15.02
2022-09-28T21:16:34.750Z,15.06
2022-09-28T21:19:02.183Z,15.06
2022-09-28T21:21:29.364Z,15.10
2022-09-28T21:23:57.662Z,15.07
2022-09-28T21:26:28.083Z,15.02
2022-09-28T21:28:58.043Z,15.02
2022-09-28T21:31:28.803Z,14.99
2022-09-28T21:33:58.425Z,14.99
2022-09-28T21:36:26.051Z,14.88
2022-09-28T21:38:55.228Z,14.84
2022-09-28T21:41:22.605Z,14.87
2022-09-28T21:43:49.738Z,14.81
2022-09-28T21:46:17.720Z,14.79
2022-09-28T21:48:44.774Z,14.79
2022-09-28T21:51:14.502Z,14.76
2022-09-28T21:53:41.722Z,14.76
2022-09-28T21:56:11.767Z,14.69
2022-09-28T21:58:40.219Z,14.72
2022-09-28T22:01:25.757Z,14.55
2022-09-28T22:03:55.283Z,14.53
2022-09-28T22:06:25.868Z,14.50
2022-09-28T22:08:52.822Z,14.39
2022-09-28T22:11:22.609Z,14.39
2022-09-28T22:13:52.290Z,14.54
2022-09-28T22:16:22.591Z,14.50
2022-09-28T22:18:50.125Z,14.44
2022-09-28T22:21:18.798Z,14.45
2022-09-28T22:23:46.127Z,14.44
2022-09-28T22:26:35.054Z,14.48
2022-09-28T22:29:08.137Z,14.48
2022-09-28T22:31:40.342Z,14.46
2022-09-28T22:34:08.083Z,14.45
2022-09-28T22:36:35.325Z,14.45
2022-09-28T22:39:02.619Z,14.50
2022-09-28T22:41:30.089Z,14.53
2022-09-28T22:43:57.613Z,14.55
2022-09-28T22:46:29.469Z,14.55
2022-09-28T22:48:58.968Z,14.58
2022-09-28T22:51:28.574Z,14.67
2022-09-28T22:53:56.800Z,14.58
2022-09-28T22:56:24.010Z,14.64
2022-09-28T22:58:52.069Z,14.63
2022-09-28T23:01:24.513Z,14.63
2022-09-28T23:03:53.315Z,14.64
2022-09-28T23:06:22.235Z,14.60
2022-09-28T23:08:50.483Z,14.59
2022-09-28T23:11:17.713Z,14.56
2022-09-28T23:13:57.016Z,14.57
2022-09-28T23:16:25.819Z,14.60
2022-09-28T23:18:54.577Z,14.61
2022-09-28T23:21:24.167Z,14.64
2022-09-28T23:23:54.214Z,14.54
2022-09-28T23:26:26.737Z,14.52
2022-09-28T23:28:54.480Z,14.60
2022-09-28T23:31:29.735Z,14.68
2022-09-28T23:34:02.114Z,14.61
2022-09-28T23:36:29.324Z,14.50
2022-09-28T23:38:56.584Z,14.56
2022-09-28T23:41:23.891Z,14.53
2022-09-28T23:43:50.827Z,14.54
2022-09-28T23:46:20.973Z,14.48
2022-09-28T23:48:49.380Z,14.47
2022-09-28T23:51:16.812Z,14.39
2022-09-28T23:53:43.878Z,14.36
2022-09-28T23:56:11.172Z,14.41
2022-09-28T23:58:38.219Z,14.40
